• Join FlightAware (Why Join?)
  • Login
  • US Flag 
12:58PM EDT


 

Airport Tracker/Info


-or-


 

Live Flight TrackerFlight Track Log ✈ N957AN ✈ 11-Jul-2013 ✈ KBOS - KORD

Flight Track Log - Related Links

Times and Time Zones

All times are in EDT time to prevent confusion due to time zone crossing. See the N957AN flight status page for this flight to view local times or setup timezone preferences in your user account.

Time Position Orientation Groundspeed Altitude Reporting Facility
EDT Latitude Longitude Course Direction KTS MPH feet Rate Location/Type
08:21AM 42.3500 -71.0167 300° West 170 196 700  Level KA90
08:22AM 42.3167 -70.9833 144° Southeast 196 226 1,900 1,620 Climbing KA90
08:23AM 42.3167 -70.8833 90° East 273 314 3,800 2,100 Climbing KA90
08:24AM 42.5394 -70.8030 340° North  Level FlightAware Approximate
08:24AM 42.3500 -70.7833 66° East 288 331 6,400  Level KA90
08:25AM 42.6107 -70.8936 308° West  Level FlightAware Approximate
08:25AM 42.3958 -70.7364 37° Northeast 342 394 8,400  Level Boston Center
08:26AM 42.6648 -71.0088 300° West  Level FlightAware Approximate
08:26AM 42.4750 -70.7258 North 312 359 10,500  Level Boston Center
08:27AM 42.5511 -70.7969 325° Northwest 295 339 12,000 1,740 Climbing Boston Center
08:28AM 42.6208 -70.8686 323° Northwest 318 366 14,000 2,580 Climbing Boston Center
08:29AM 42.7239 -70.9336 335° Northwest 357 411 17,200 2,640 Climbing Boston Center
08:30AM 42.8042 -71.0250 320° Northwest 370 426 19,300 2,100 Climbing Boston Center
08:31AM 42.8206 -71.1578 280° West 344 396 21,400 1,740 Climbing Boston Center
08:32AM 42.8386 -71.2992 280° West 350 403 22,800 1,620 Climbing Boston Center
08:33AM 42.8525 -71.4489 277° West 382 440 24,700 1,680 Climbing Boston Center
08:34AM 42.8600 -71.5989 274° West 395 455 26,200 1,380 Climbing Boston Center
08:35AM 42.8714 -71.7403 276° West 412 474 27,500 1,140 Climbing Boston Center
08:36AM 42.8825 -71.8989 276° West 418 481 28,500 1,080 Climbing Boston Center
08:37AM 42.8978 -72.0603 277° West 428 493 29,700 1,440 Climbing Boston Center
08:38AM 42.9108 -72.2189 276° West 428 493 31,400 1,620 Climbing Boston Center
08:39AM 42.9319 -72.3975 279° West 428 493 33,000 1,380 Climbing Boston Center
08:40AM 42.9442 -72.5564 276° West 428 493 34,200 1,200 Climbing Boston Center
08:41AM 42.9481 -72.7094 272° West 415 478 35,500 1,200 Climbing Boston Center
08:42AM 42.9581 -72.8656 275° West 415 478 36,600 1,020 Climbing Boston Center
08:43AM 42.9722 -73.0047 278° West 415 478 37,600 660 Climbing Boston Center
08:44AM 42.9839 -73.1525 276° West 415 478 38,000 180 Climbing Boston Center
08:45AM 42.9953 -73.3058 276° West 409 471 38,000  Level Boston Center
08:46AM 43.0003 -73.4478 273° West 402 463 38,000 -60 Level Boston Center
08:47AM 43.0094 -73.5986 275° West 402 463 37,900  Descending Boston Center
08:48AM 43.0222 -73.7492 277° West 402 463 38,000  Climbing Boston Center
08:49AM 43.0308 -73.8972 275° West 407 468 38,000  Level Boston Center
08:50AM 43.0394 -74.0450 275° West 407 468 38,000  Level Boston Center
08:51AM 43.0517 -74.1931 276° West 407 468 38,000  Level Boston Center
08:52AM 43.0597 -74.3442 274° West 402 463 38,000  Level Boston Center
08:53AM 43.0697 -74.4950 275° West 402 463 38,000  Level Boston Center
08:54AM 43.0772 -74.6403 274° West 407 468 38,000 -60 Level Boston Center
08:55AM 43.0869 -74.7914 275° West 407 468 37,900 -60 Descending Boston Center
08:56AM 43.0942 -74.9394 274° West 407 468 37,900  Level Boston Center
08:57AM 43.1033 -75.0906 275° West 407 468 37,900  Level Boston Center
08:58AM 43.1117 -75.2586 274° West 407 468 38,000  Climbing Boston Center
08:59AM 43.1119 -75.4125 270° West 407 468 38,000  Level Boston Center
09:00AM 43.1142 -75.5633 271° West 407 468 38,000  Level Boston Center
09:01AM 43.1183 -75.7114 272° West 402 463 38,000  Level Boston Center
09:02AM 43.1181 -75.8622 270° West 402 463 38,000  Level Boston Center
09:03AM 43.1197 -76.0103 271° West 402 463 38,000  Level Boston Center
09:05AM 43.1167 -76.3000 269° West 390 449 38,000  Level Toronto Center
09:06AM 43.1167 -76.4500 270° West 390 449 38,000  Level Toronto Center
09:07AM 43.1000 -76.6000 261° West 390 449 38,000  Level Toronto Center
09:08AM 43.1167 -76.7333 280° West 390 449 38,000  Level Toronto Center
09:09AM 43.1167 -76.9000 270° West 390 449 38,000  Level Toronto Center
09:10AM 43.1167 -77.0500 270° West 390 449 38,000  Level Toronto Center
09:11AM 43.1000 -77.1833 260° West 400 460 38,000  Level Toronto Center
09:12AM 43.1000 -77.3500 270° West 400 460 38,000  Level Toronto Center
09:13AM 43.1167 -77.4833 280° West 400 460 38,000  Level Toronto Center
09:14AM 43.1167 -77.6500 270° West 400 460 38,000  Level Toronto Center
09:15AM 43.1000 -77.8000 261° West 400 460 38,000  Level Toronto Center
09:16AM 43.1000 -77.9667 270° West 400 460 38,000  Level Toronto Center
09:17AM 43.1000 -78.1000 270° West 390 449 38,000  Level Toronto Center
09:18AM 43.1000 -78.2333 270° West 390 449 38,000  Level Toronto Center
09:19AM 43.0833 -78.4000 262° West 390 449 38,000  Level Toronto Center
09:20AM 43.1000 -78.5333 280° West 390 449 38,000  Level Toronto Center
09:21AM 43.1000 -78.7000 270° West 390 449 38,000  Level Toronto Center
09:22AM 43.1000 -78.8333 270° West 380 437 38,000  Level Toronto Center
09:23AM 43.1000 -79.0000 270° West 380 437 38,000  Level Toronto Center
09:24AM 43.0833 -79.1333 260° West 380 437 38,000  Level Toronto Center
09:25AM 43.0833 -79.2667 270° West 380 437 38,000  Level Toronto Center
09:26AM 43.0833 -79.4333 270° West 380 437 38,000  Level Toronto Center
09:27AM 43.0833 -79.5667 270° West 370 426 38,000  Level Toronto Center
09:28AM 43.0667 -79.7000 260° West 370 426 38,000  Level Toronto Center
09:29AM 43.0667 -79.8333 270° West 380 437 38,000  Level Toronto Center
09:30AM 43.0667 -80.0000 270° West 380 437 38,000  Level Toronto Center
09:31AM 43.0667 -80.1333 270° West 380 437 38,000  Level Toronto Center
09:32AM 43.0667 -80.2667 270° West 380 437 38,000  Level Toronto Center
09:33AM 43.0500 -80.4333 262° West 380 437 38,000  Level Toronto Center
09:34AM 43.0500 -80.5667 270° West 380 437 38,000  Level Toronto Center
09:35AM 43.0500 -80.7000 270° West 380 437 38,000  Level Toronto Center
09:36AM 43.0333 -80.8667 262° West 380 437 38,000  Level Toronto Center
09:37AM 43.0167 -81.0000 260° West 380 437 38,000  Level Toronto Center
09:38AM 43.0167 -81.1333 270° West 380 437 38,000  Level Toronto Center
09:39AM 43.0167 -81.2667 270° West 380 437 38,000  Level Toronto Center
09:40AM 43.0167 -81.4333 270° West 380 437 38,000  Level Toronto Center
09:41AM 43.0167 -81.5667 270° West 380 437 38,000  Level Toronto Center
09:42AM 43.0167 -81.7000 270° West 380 437 38,000  Level Toronto Center
09:43AM 43.0167 -81.8667 270° West 380 437 38,000  Level Toronto Center
09:44AM 43.0000 -82.0000 260° West 380 437 38,000  Level Toronto Center
09:45AM 43.0000 -82.1667 270° West 380 437 38,000  Level Toronto Center
09:46AM 43.0000 -82.3000 270° West 380 437 38,000  Level Toronto Center
09:47AM 43.0000 -82.4333 270° West 370 426 38,000  Level Toronto Center
09:48AM 43.0000 -82.5667 270° West 370 426 38,000  Level Toronto Center
09:48AM 43.0022 -82.6583 272° West 380 437 38,000  Level Cleveland Center
09:50AM 42.9994 -82.8031 269° West 380 437 38,000  Level Cleveland Center
09:50AM 42.9944 -82.9447 267° West 380 437 38,000 -60 Level Cleveland Center
09:52AM 42.9875 -83.0864 266° West 385 443 37,900 -540 Descending Cleveland Center
09:53AM 42.9861 -83.2342 269° West 385 443 37,000 -960 Descending Cleveland Center
09:54AM 42.9806 -83.3842 267° West 385 443 36,000 -960 Descending Cleveland Center
09:55AM 42.9747 -83.5372 267° West 392 451 35,100 -960 Descending Cleveland Center
09:56AM 42.9667 -83.6844 266° West 397 457 34,100 -960 Descending Cleveland Center
09:57AM 42.9583 -83.8344 266° West 397 457 33,200 -960 Descending Cleveland Center
09:58AM 42.9417 -83.9811 261° West 397 457 32,200 -600 Descending Cleveland Center
09:59AM 42.9286 -84.1336 263° West 404 465 32,000 -180 Descending Cleveland Center
09:59AM 42.9239 -84.1961 264° West 400 460 32,000  Level Chicago Center
10:00AM 42.9089 -84.3442 262° West 397 457 32,000  Level Chicago Center
10:01AM 42.8908 -84.5225 262° West 397 457 32,000  Level Chicago Center
10:02AM 42.8750 -84.6700 262° West 395 455 32,000  Level Chicago Center
10:03AM 42.8603 -84.8186 262° West 397 457 32,000  Level Chicago Center
10:04AM 42.8450 -84.9678 262° West 398 458 32,000  Level Chicago Center
10:05AM 42.8281 -85.1158 261° West 396 456 32,000  Level Chicago Center
10:06AM 42.8125 -85.2639 262° West 395 455 32,000 -300 Level Chicago Center
10:07AM 42.7961 -85.4139 262° West 399 459 31,400 -1,440 Descending Chicago Center
10:08AM 42.7703 -85.5917 259° West 398 458 29,100 -2,220 Descending Chicago Center
10:09AM 42.7425 -85.7411 256° West 404 465 26,900 -2,160 Descending Chicago Center
10:10AM 42.7144 -85.8953 256° West 415 478 24,700 -2,160 Descending Chicago Center
10:11AM 42.6872 -86.0458 256° West 409 471 22,500 -2,160 Descending Chicago Center
10:13AM 42.6603 -86.1919 256° West 399 459 20,300 -1,260 Descending Chicago Center
10:14AM 42.6339 -86.3325 256° West 385 443 20,000 -1,080 Descending Chicago Center
10:15AM 42.6069 -86.4714 255° West 382 440 18,100 -2,280 Descending Chicago Center
10:16AM 42.5753 -86.6417 256° West 384 442 15,300 -2,460 Descending Chicago Center
10:17AM 42.5497 -86.7747 255° West 371 427 13,100 -2,220 Descending Chicago Center
10:18AM 42.5139 -86.9008 249° West 364 419 10,800 -1,500 Descending Chicago Center
10:19AM 42.4797 -87.0258 250° West 357 411 10,000 -420 Descending Chicago Center
10:20AM 42.4456 -87.1461 249° West 348 400 10,000 -60 Level Chicago Center
10:21AM 42.4144 -87.2575 249° West 316 364 9,900 -540 Descending Chicago Center
10:22AM 42.3583 -87.3556 232° Southwest 307 353 9,000 -1,080 Descending Chicago Center
10:23AM 42.2767 -87.3675 186° South 296 341 7,700 -960 Descending Chicago Center
10:24AM 42.1944 -87.3819 187° South 299 344 7,000 -360 Descending Chicago Center
10:25AM 42.1139 -87.3978 188° South 295 339 7,000 -480 Level Chicago Center
10:26AM 42.0336 -87.4119 187° South 293 337 6,100 -1,020 Descending Chicago Center
10:27AM 41.9708 -87.4961 225° Southwest 288 331 5,000 -660 Descending Chicago Center
10:28AM 41.9689 -87.5936 268° West 272 313 4,800 -240 Descending Chicago Center